South Solon, Ohio
Current Conditions -  °F | °C
As of 5:56 PM on Tuesday 25 Nov 2014 (Local Time) from KSGH Reporting Station
Overcast Overcast  
Wind Chill: 28°   Ceiling: 3000
Heat Index: 34°   Visibility: 8mi
Dew Point: 29°   Wind: 7mph
Humidity: 82%   Direction: NA
Pressure: 30.15"   Gusts: NA
Location:  39.74°N, 83.61°W
Report Text: KSGH 252256Z AUTO VRB06KT 8SM OVC030 01/M02 A3015 RMK AO2 T00111016 SLP219 $
Loading
Personal Weather Stations






























Interactive Weather Map New forecast layout! Learn more

10-Day Weather Forecast

Advertisements
Track Severe Weather on mobile